Time;durP1;ratioP1;P1;durP2;ratioP2;P2;SDS_P1;SDS_P2;PMS_P1;PMS_P2;Temp;Humidity;BMP_temperature;BMP_pressure;BME280_temperature;BME280_humidity;BME280_pressure;Samples;Min_cycle;Max_cycle;Signal;HPM_P1;HPM_P2
2023/12/01 00:01:52;;;;;;;;;7.50;7.00;;;;;21.39;44.98;99663.81;112139;1262;20171;-31
2023/12/01 00:04:20;;;;;;;;;6.33;6.00;;;;;21.41;44.67;99663.12;112162;1262;19732;-31
2023/12/01 00:06:47;;;;;;;;;8.00;5.00;;;;;21.41;45.05;99661.11;112142;1262;18473;-32
2023/12/01 00:09:15;;;;;;;;;7.67;7.33;;;;;21.40;44.70;99661.77;112158;1247;20311;-29
2023/12/01 00:11:42;;;;;;;;;7.00;7.00;;;;;21.39;44.58;99663.91;112154;1262;19600;-30
2023/12/01 00:14:10;;;;;;;;;7.00;7.00;;;;;21.40;44.67;99660.84;112184;1262;20835;-30
2023/12/01 00:16:37;;;;;;;;;11.00;7.00;;;;;21.40;44.69;99656.16;112142;1262;21442;-30
2023/12/01 00:19:05;;;;;;;;;8.00;8.00;;;;;21.38;44.51;99656.96;112136;1262;20877;-30
2023/12/01 00:21:32;;;;;;;;;7.67;7.00;;;;;21.38;44.57;99653.15;112110;1247;20078;-30
2023/12/01 00:24:00;;;;;;;;;5.00;5.00;;;;;21.39;44.40;99652.36;112133;1262;18829;-30
2023/12/01 00:26:27;;;;;;;;;8.50;8.00;;;;;21.38;44.40;99646.08;112151;1262;19585;-30
2023/12/01 00:28:55;;;;;;;;;7.50;7.00;;;;;21.40;44.26;99650.06;112171;1262;19922;-30
2023/12/01 00:31:22;;;;;;;;;8.00;7.00;;;;;21.39;44.55;99647.30;112073;1262;20182;-30
2023/12/01 00:33:50;;;;;;;;;7.00;7.00;;;;;21.39;44.41;99645.02;112061;1263;21871;-31
2023/12/01 00:36:17;;;;;;;;;7.00;6.50;;;;;21.38;44.45;99648.30;112045;1263;19996;-31
2023/12/01 00:38:45;;;;;;;;;10.00;8.00;;;;;21.39;44.29;99651.98;112140;1248;18712;-31
2023/12/01 00:41:12;;;;;;;;;7.00;7.00;;;;;21.38;44.45;99651.02;112020;1263;20884;-31
2023/12/01 00:43:40;;;;;;;;;5.00;5.00;;;;;21.37;44.49;99643.46;112109;1263;20268;-31
2023/12/01 00:46:07;;;;;;;;;5.33;5.00;;;;;21.38;44.26;99641.17;112054;1263;20344;-31
2023/12/01 00:48:35;;;;;;;;;7.00;7.00;;;;;21.38;44.35;99641.94;112124;1263;22254;-31
2023/12/01 00:51:02;;;;;;;;;9.00;8.00;;;;;21.39;43.89;99643.23;112033;1263;18273;-31
2023/12/01 00:53:30;;;;;;;;;7.50;7.50;;;;;21.37;44.08;99644.72;112103;1263;19943;-31
2023/12/01 00:55:57;;;;;;;;;8.00;8.00;;;;;21.37;43.90;99650.99;112032;1248;19590;-31
2023/12/01 00:58:25;;;;;;;;;8.00;7.67;;;;;21.35;43.84;99656.52;112112;1263;19639;-31
2023/12/01 01:00:53;;;;;;;;;8.00;8.00;;;;;21.36;43.93;99662.02;111992;1263;20998;-31
2023/12/01 01:03:20;;;;;;;;;7.00;7.00;;;;;21.37;43.98;99666.73;112095;1263;19771;-31
2023/12/01 01:05:48;;;;;;;;;7.00;7.00;;;;;21.35;44.13;99661.64;111982;1263;19489;-31
2023/12/01 01:08:15;;;;;;;;;;;;;;;21.35;44.10;99657.58;112103;1248;18757;-31
2023/12/01 01:10:43;;;;;;;;;7.00;7.00;;;;;21.34;44.23;99654.48;111963;1264;20854;-31
2023/12/01 01:13:10;;;;;;;;;8.00;8.00;;;;;21.33;44.17;99654.70;112100;1263;19393;-31
2023/12/01 01:15:38;;;;;;;;;10.00;8.00;;;;;21.34;44.09;99661.50;111951;1263;19333;-31
2023/12/01 01:18:06;;;;;;;;;8.00;7.50;;;;;21.33;44.07;99656.94;112142;1263;21048;-31
2023/12/01 01:20:33;;;;;;;;;5.00;5.00;;;;;21.33;44.27;99657.48;112222;1263;20263;-31
2023/12/01 01:23:01;;;;;;;;;10.00;10.00;;;;;21.33;43.88;99660.37;112127;1263;21557;-31
2023/12/01 01:25:30;;;;;;;;;7.00;7.00;;;;;21.33;43.87;99660.31;112200;1248;20571;-31
2023/12/01 01:27:57;;;;;;;;;8.00;7.00;;;;;21.33;43.92;99661.79;112021;1248;20025;-31
2023/12/01 01:30:24;;;;;;;;;7.00;5.00;;;;;21.33;44.07;99655.74;112194;1248;20099;-31
2023/12/01 01:32:52;;;;;;;;;8.00;7.00;;;;;21.33;43.89;99660.65;112013;1248;21981;-31
2023/12/01 01:35:20;;;;;;;;;7.00;5.00;;;;;21.32;43.79;99659.36;112204;1248;19647;-31
2023/12/01 01:37:47;;;;;;;;;7.00;6.00;;;;;21.32;43.71;99654.88;112029;1263;20794;-31
2023/12/01 01:40:14;;;;;;;;;8.33;7.33;;;;;21.32;43.53;99651.13;112042;1247;239175;-30
2023/12/01 01:42:42;;;;;;;;;8.50;7.50;;;;;21.32;43.86;99647.91;112086;1263;18294;-31
2023/12/01 01:45:09;;;;;;;;;7.00;7.00;;;;;21.31;43.72;99648.10;112274;1263;19973;-31
2023/12/01 01:47:36;;;;;;;;;7.00;7.00;;;;;21.32;43.83;99650.91;112116;1263;21213;-31
2023/12/01 01:50:04;;;;;;;;;7.00;7.00;;;;;21.33;43.75;99649.76;112297;1251;19654;-31
2023/12/01 01:52:31;;;;;;;;;7.00;7.00;;;;;21.32;43.74;99651.99;112146;1256;18598;-31
2023/12/01 01:54:58;;;;;;;;;8.33;7.67;;;;;21.31;43.69;99651.41;112286;1257;20869;-31
2023/12/01 01:57:26;;;;;;;;;7.00;7.00;;;;;21.31;43.64;99651.25;112160;1263;21417;-31
2023/12/01 01:59:53;;;;;;;;;8.00;8.00;;;;;21.31;43.53;99651.09;112046;1263;18609;-31
2023/12/01 02:02:22;;;;;;;;;8.00;8.00;;;;;21.32;43.38;99651.41;112197;1248;19290;-31
2023/12/01 02:04:53;;;;;;;;;7.00;7.00;;;;;21.31;43.72;99658.55;112204;1263;18892;-31
2023/12/01 02:07:24;;;;;;;;;8.00;7.00;;;;;21.31;43.68;99666.28;112203;1263;18616;-31
2023/12/01 02:09:52;;;;;;;;;6.00;4.50;;;;;21.30;43.54;99669.02;112099;1263;19344;-31
2023/12/01 02:12:20;;;;;;;;;8.00;8.00;;;;;21.31;43.35;99668.58;112259;1247;19623;-31
2023/12/01 02:14:47;;;;;;;;;7.00;7.00;;;;;21.30;43.44;99670.88;112056;1263;18509;-31
2023/12/01 02:17:15;;;;;;;;;7.00;7.00;;;;;21.31;43.33;99674.63;112251;1249;20741;-31
2023/12/01 02:19:42;;;;;;;;;7.00;7.00;;;;;21.30;43.35;99680.68;112085;1263;18797;-31
2023/12/01 02:22:09;;;;;;;;;8.33;7.33;;;;;21.30;43.39;99676.83;112265;1257;19245;-31
2023/12/01 02:24:36;;;;;;;;;8.00;7.00;;;;;21.30;43.25;99679.94;112117;1248;19346;-31
2023/12/01 02:27:04;;;;;;;;;7.00;5.00;;;;;21.31;43.38;99674.35;112217;1247;20202;-31
2023/12/01 02:29:31;;;;;;;;;7.00;7.00;;;;;21.28;43.29;99671.77;112139;1263;18867;-31
2023/12/01 02:31:59;;;;;;;;;9.00;7.00;;;;;21.28;43.30;99672.71;111989;1263;18277;-31
2023/12/01 02:34:26;;;;;;;;;7.00;5.00;;;;;21.28;43.38;99669.27;112152;1263;20140;-31
2023/12/01 02:36:58;;;;;;;;;7.00;7.00;;;;;21.27;43.28;99669.96;112005;1248;20021;-31
2023/12/01 02:39:25;;;;;;;;;7.00;7.00;;;;;21.27;43.38;99664.78;112229;1248;21964;-31
2023/12/01 02:41:53;;;;;;;;;7.00;7.00;;;;;21.26;43.21;99664.25;112022;1251;19703;-31
2023/12/01 02:44:20;;;;;;;;;7.00;5.00;;;;;21.27;43.35;99666.41;112250;1250;20135;-31
2023/12/01 02:46:47;;;;;;;;;8.00;8.00;;;;;21.28;43.18;99667.44;112054;1248;19430;-31
2023/12/01 02:49:14;;;;;;;;;7.00;7.00;;;;;21.28;42.96;99669.27;112246;1248;19601;-31
2023/12/01 02:51:42;;;;;;;;;8.00;8.00;;;;;21.28;43.07;99666.13;112078;1247;21270;-31
2023/12/01 02:54:09;;;;;;;;;6.00;6.00;;;;;21.29;43.17;99667.20;111992;1248;20780;-31
2023/12/01 02:56:36;;;;;;;;;5.67;5.67;;;;;21.27;43.30;99664.94;112124;1248;19604;-31
2023/12/01 02:59:04;;;;;;;;;4.00;4.00;;;;;21.27;43.16;99666.63;112003;1251;20171;-31
2023/12/01 03:01:31;;;;;;;;;7.67;7.00;;;;;21.27;43.09;99672.69;112164;1248;20663;-31
2023/12/01 03:03:58;;;;;;;;;7.00;7.00;;;;;21.28;42.94;99674.51;112031;1247;19591;-31
2023/12/01 03:06:26;;;;;;;;;7.50;5.00;;;;;21.27;42.97;99672.30;112193;1263;20939;-31
2023/12/01 03:08:53;;;;;;;;;7.00;6.00;;;;;21.26;43.12;99670.79;111972;1256;20818;-31
2023/12/01 03:11:20;;;;;;;;;8.00;7.00;;;;;21.27;42.82;99673.94;112211;1263;18167;-31
2023/12/01 03:13:47;;;;;;;;;7.00;7.00;;;;;21.26;42.99;99681.20;112018;1248;18622;-31
2023/12/01 03:16:16;;;;;;;;;7.33;7.00;;;;;21.27;43.01;99680.73;112149;1263;19310;-31
2023/12/01 03:18:43;;;;;;;;;7.00;7.00;;;;;21.27;42.80;99676.43;112036;1251;19576;-31
2023/12/01 03:21:12;;;;;;;;;10.00;8.00;;;;;21.27;42.96;99677.91;112185;1263;18620;-31
2023/12/01 03:23:40;;;;;;;;;7.00;7.00;;;;;21.27;42.99;99682.71;112084;1248;20695;-30
2023/12/01 03:26:08;;;;;;;;;5.00;5.00;;;;;21.27;42.97;99683.64;112053;1248;19924;-29
2023/12/01 03:28:36;;;;;;;;;8.50;8.50;;;;;21.28;42.99;99685.36;112173;1263;18495;-31
2023/12/01 03:31:03;;;;;;;;;6.67;6.67;;;;;21.27;42.88;99684.23;112000;1248;21868;-31
2023/12/01 03:33:31;;;;;;;;;8.00;7.00;;;;;21.26;42.76;99686.42;112204;1247;18164;-31
2023/12/01 03:35:59;;;;;;;;;5.00;5.00;;;;;21.27;42.76;99691.05;112049;1263;20124;-31
2023/12/01 03:38:26;;;;;;;;;8.00;6.00;;;;;21.25;42.75;99700.16;112157;1263;19673;-31
2023/12/01 03:40:53;;;;;;;;;11.00;8.00;;;;;21.25;42.73;99698.48;111995;1264;19683;-31
2023/12/01 03:43:21;;;;;;;;;9.00;7.50;;;;;21.26;42.75;99701.84;112138;1263;19986;-31
2023/12/01 03:45:48;;;;;;;;;10.00;7.00;;;;;21.26;42.89;99702.45;111974;1263;19309;-31
2023/12/01 03:48:15;;;;;;;;;8.33;8.33;;;;;21.25;43.01;99698.55;112070;1263;18199;-31
2023/12/01 03:50:43;;;;;;;;;10.00;7.00;;;;;21.25;42.77;99699.89;112003;1251;21340;-31
2023/12/01 03:53:10;;;;;;;;;9.00;8.00;;;;;21.25;42.78;99697.62;112014;1248;20779;-31
2023/12/01 03:55:37;;;;;;;;;15.00;8.00;;;;;21.25;42.79;99699.09;112052;1263;19892;-31
2023/12/01 03:58:05;;;;;;;;;8.00;8.00;;;;;21.25;42.62;99695.38;112026;1256;19091;-30
2023/12/01 04:00:33;;;;;;;;;10.33;10.00;;;;;21.24;42.66;99694.95;112001;1248;21681;-31
2023/12/01 04:03:00;;;;;;;;;8.00;8.00;;;;;21.23;42.75;99693.02;111980;1263;19508;-31
2023/12/01 04:05:28;;;;;;;;;10.00;10.00;;;;;21.23;42.67;99691.92;112032;1248;21177;-31
2023/12/01 04:07:55;;;;;;;;;10.00;8.00;;;;;21.24;42.67;99691.27;112005;1263;20703;-31
2023/12/01 04:10:22;;;;;;;;;10.00;9.67;;;;;21.23;42.52;99693.36;112024;1263;19907;-31
2023/12/01 04:12:49;;;;;;;;;10.00;9.50;;;;;21.23;42.62;99691.27;112051;1249;20139;-31
2023/12/01 04:15:17;;;;;;;;;15.50;13.00;;;;;21.22;42.55;99687.20;112108;1263;20592;-31
2023/12/01 04:17:45;;;;;;;;;13.00;10.00;;;;;21.23;42.52;99683.87;112062;1248;19944;-31
2023/12/01 04:20:20;;;;;;;;;14.00;14.00;;;;;21.23;42.60;99680.64;112028;1263;18793;-31
2023/12/01 04:22:48;;;;;;;;;13.00;11.00;;;;;21.23;42.49;99671.50;111995;1263;19825;-30
2023/12/01 04:25:15;;;;;;;;;13.50;13.50;;;;;21.23;42.35;99671.19;112006;1264;19908;-31
2023/12/01 04:27:42;;;;;;;;;14.50;13.00;;;;;21.23;42.31;99664.19;111998;1263;20072;-29
2023/12/01 04:30:14;;;;;;;;;13.00;12.00;;;;;21.22;42.39;99667.65;112050;1263;19353;-29
2023/12/01 04:32:41;;;;;;;;;14.00;14.00;;;;;21.22;42.51;99670.15;112006;1263;18672;-29
2023/12/01 04:35:10;;;;;;;;;14.50;13.00;;;;;21.22;42.40;99669.71;112145;1251;20186;-30
2023/12/01 04:37:38;;;;;;;;;16.00;14.00;;;;;21.22;42.30;99670.20;112010;1248;19341;-30
2023/12/01 04:40:13;;;;;;;;;13.00;11.50;;;;;21.23;42.31;99660.82;112088;1248;20008;-30
2023/12/01 04:42:40;;;;;;;;;16.00;14.33;;;;;21.23;42.35;99664.59;112045;1263;18567;-30
2023/12/01 04:45:11;;;;;;;;;15.33;13.67;;;;;21.23;42.43;99659.46;112032;1263;19332;-29
2023/12/01 04:47:39;;;;;;;;;16.00;16.00;;;;;21.22;42.13;99663.83;112099;1251;20026;-29
2023/12/01 04:50:12;;;;;;;;;17.00;16.00;;;;;21.23;42.39;99668.17;112005;1248;20279;-30
2023/12/01 04:52:39;;;;;;;;;20.00;19.00;;;;;21.22;42.28;99665.30;111694;1254;20776;-29
2023/12/01 04:55:06;;;;;;;;;16.50;15.00;;;;;21.22;42.40;99665.62;111966;1247;19816;-29
2023/12/01 04:57:34;;;;;;;;;17.00;17.00;;;;;21.23;42.42;99666.83;112152;1263;19884;-29
2023/12/01 05:00:02;;;;;;;;;17.33;16.33;;;;;21.22;42.26;99674.40;111992;1248;20728;-30
2023/12/01 05:02:29;;;;;;;;;17.00;16.33;;;;;21.22;42.50;99678.70;112135;1263;20159;-30
2023/12/01 05:04:56;;;;;;;;;16.00;16.00;;;;;21.21;42.24;99675.38;111998;1247;20074;-30
2023/12/01 05:07:24;;;;;;;;;17.00;16.00;;;;;21.21;42.21;99673.64;112160;1249;20798;-30
2023/12/01 05:09:51;;;;;;;;;18.50;15.50;;;;;21.21;42.11;99676.52;112010;1263;18547;-30
2023/12/01 05:12:18;;;;;;;;;20.33;19.00;;;;;21.21;42.06;99679.48;112007;1257;21358;-30
2023/12/01 05:14:46;;;;;;;;;16.67;15.33;;;;;21.22;42.31;99685.55;112064;1251;20750;-30
2023/12/01 05:17:13;;;;;;;;;16.67;16.67;;;;;21.21;42.41;99689.44;111965;1255;20155;-30
2023/12/01 05:19:40;;;;;;;;;19.50;18.00;;;;;21.21;42.26;99688.23;112095;1248;20174;-30
2023/12/01 05:22:08;;;;;;;;;17.00;17.00;;;;;21.21;42.11;99686.65;111977;1251;20741;-30
2023/12/01 05:24:35;;;;;;;;;19.00;17.00;;;;;21.21;42.32;99688.95;112134;1263;18537;-30
2023/12/01 05:27:07;;;;;;;;;18.00;17.00;;;;;21.20;42.22;99690.53;112010;1248;19994;-30
2023/12/01 05:29:35;;;;;;;;;19.50;18.00;;;;;21.22;42.20;99690.36;112140;1263;20569;-30
2023/12/01 05:32:03;;;;;;;;;22.00;20.00;;;;;21.22;41.94;99697.38;111989;1263;20212;-30
2023/12/01 05:34:30;;;;;;;;;16.50;16.00;;;;;21.21;41.98;99697.89;112153;1248;20257;-30
2023/12/01 05:36:57;;;;;;;;;19.00;17.50;;;;;21.20;42.04;99704.31;111970;1257;20796;-30
2023/12/01 05:39:24;;;;;;;;;19.00;16.00;;;;;21.21;41.92;99704.41;112154;1256;19917;-30
2023/12/01 05:41:52;;;;;;;;;19.00;17.00;;;;;21.20;41.97;99706.54;111990;1248;20110;-30
2023/12/01 05:44:19;;;;;;;;;23.00;20.00;;;;;21.20;42.02;99709.44;112182;1256;20698;-30
2023/12/01 05:46:47;;;;;;;;;20.00;17.00;;;;;21.20;42.01;99717.44;112044;1248;20361;-30
2023/12/01 05:49:14;;;;;;;;;16.00;16.00;;;;;21.20;41.94;99722.23;112200;1248;21385;-30
2023/12/01 05:51:42;;;;;;;;;14.50;14.50;;;;;21.21;41.84;99724.94;112040;1248;20769;-30
2023/12/01 05:54:09;;;;;;;;;17.00;17.00;;;;;21.21;42.02;99722.78;112181;1263;19857;-30
2023/12/01 05:56:36;;;;;;;;;17.00;17.00;;;;;21.19;41.79;99723.17;112072;1248;20009;-30
2023/12/01 05:59:04;;;;;;;;;17.00;16.00;;;;;21.19;41.87;99726.88;112200;1248;21986;-30
2023/12/01 06:01:32;;;;;;;;;16.00;14.00;;;;;21.20;41.58;99728.50;112026;1263;19862;-29
2023/12/01 06:03:59;;;;;;;;;19.50;18.00;;;;;21.20;41.82;99729.64;112191;1263;18844;-30
2023/12/01 06:06:27;;;;;;;;;17.00;16.00;;;;;21.20;41.89;99730.96;112054;1248;20684;-30
2023/12/01 06:08:54;;;;;;;;;19.00;15.00;;;;;21.19;41.64;99730.95;112176;1248;20031;-30
2023/12/01 06:11:21;;;;;;;;;18.33;18.33;;;;;21.19;41.72;99728.67;112072;1263;18696;-30
2023/12/01 06:13:49;;;;;;;;;19.00;17.00;;;;;21.19;41.74;99727.20;112217;1263;19340;-30
2023/12/01 06:16:16;;;;;;;;;19.00;17.00;;;;;21.19;41.53;99724.82;112104;1248;19969;-30
2023/12/01 06:18:43;;;;;;;;;16.00;14.00;;;;;21.20;41.73;99725.23;112025;1247;18644;-30
2023/12/01 06:21:11;;;;;;;;;14.50;14.00;;;;;21.22;41.73;99727.34;112132;1247;22242;-30
2023/12/01 06:23:38;;;;;;;;;24.00;19.00;;;;;21.31;41.51;99733.68;111979;1248;19966;-30
2023/12/01 06:26:05;;;;;;;;;14.00;13.00;;;;;21.28;41.98;99729.32;112163;1247;18729;-30
2023/12/01 06:28:33;;;;;;;;;16.00;13.50;;;;;21.28;42.21;99727.36;111997;1248;20741;-30
2023/12/01 06:31:00;;;;;;;;;16.00;12.67;;;;;21.31;43.04;99731.00;112156;1248;18997;-31
2023/12/01 06:33:28;;;;;;;;;16.00;14.33;;;;;21.33;43.83;99740.68;111984;1248;20143;-31
2023/12/01 06:35:55;;;;;;;;;13.00;13.00;;;;;21.36;43.51;99743.64;112218;1248;19318;-30
2023/12/01 06:38:23;;;;;;;;;13.00;13.00;;;;;21.37;44.16;99744.32;112066;1247;20029;-30
2023/12/01 06:40:50;;;;;;;;;12.00;11.00;;;;;21.37;43.93;99743.08;112246;1256;20029;-30
2023/12/01 06:43:18;;;;;;;;;13.00;12.00;;;;;21.36;44.03;99746.67;112039;1263;19266;-30
2023/12/01 06:45:45;;;;;;;;;14.00;13.00;;;;;21.33;43.81;99745.20;112211;1248;20017;-30
2023/12/01 06:48:13;;;;;;;;;18.00;15.67;;;;;21.32;44.08;99747.45;111997;1247;20865;-30
2023/12/01 06:50:40;;;;;;;;;508.00;507.00;;;;;21.29;44.00;99752.23;112228;1256;19990;-30
2023/12/01 06:53:08;;;;;;;;;16.00;15.00;;;;;21.32;43.84;99751.69;112039;1247;19907;-30
2023/12/01 06:55:36;;;;;;;;;10.00;10.00;;;;;21.32;44.07;99749.63;112155;1257;20036;-30
2023/12/01 06:58:03;;;;;;;;;17.50;16.50;;;;;21.36;43.84;99750.17;111953;1263;19310;-30
2023/12/01 07:00:33;;;;;;;;;13.50;11.00;;;;;21.33;43.99;99750.48;112175;1248;21203;-30
2023/12/01 07:03:00;;;;;;;;;16.00;11.00;;;;;21.37;44.20;99749.45;112221;1248;21609;-30
2023/12/01 07:05:27;;;;;;;;;13.00;10.00;;;;;21.39;44.06;99744.18;112051;1248;19342;-30
2023/12/01 07:07:55;;;;;;;;;10.00;10.00;;;;;21.41;44.28;99743.70;112228;1256;20078;-30
2023/12/01 07:10:22;;;;;;;;;19.00;14.00;;;;;21.36;44.22;99749.51;112101;1248;20380;-30
2023/12/01 07:12:49;;;;;;;;;13.00;13.00;;;;;21.36;44.13;99743.25;112161;1250;21893;-30
2023/12/01 07:15:20;;;;;;;;;13.67;13.00;;;;;21.35;44.18;99745.05;112087;1263;18666;-30
2023/12/01 07:17:48;;;;;;;;;14.50;13.50;;;;;21.38;44.37;99741.67;112049;1263;20691;-30
2023/12/01 07:20:16;;;;;;;;;11.00;11.00;;;;;21.35;44.81;99741.02;112164;1257;20700;-30
2023/12/01 07:22:45;;;;;;;;;12.00;10.00;;;;;21.39;44.62;99746.30;112259;1263;18583;-30
2023/12/01 07:25:21;;;;;;;;;16.00;13.00;;;;;21.38;44.42;99754.01;112042;1248;20619;-30
2023/12/01 07:27:48;;;;;;;;;10.00;9.00;;;;;21.36;44.77;99757.89;111961;1248;21907;-30
2023/12/01 07:30:16;;;;;;;;;13.00;10.00;;;;;21.36;44.85;99761.61;112129;1247;20083;-30
2023/12/01 07:32:44;;;;;;;;;14.50;13.00;;;;;21.41;44.37;99763.42;111960;1247;18769;-30
2023/12/01 07:35:12;;;;;;;;;14.67;11.67;;;;;21.41;44.50;99762.88;112102;1248;20744;-30
2023/12/01 07:37:42;;;;;;;;;14.33;13.33;;;;;21.44;44.45;99760.98;112017;1247;21322;-30
2023/12/01 07:40:09;;;;;;;;;13.67;11.00;;;;;21.42;44.37;99761.89;111984;1263;18743;-30
2023/12/01 07:42:36;;;;;;;;;14.00;11.33;;;;;21.38;44.31;99766.96;112104;1256;20640;-30
2023/12/01 07:45:04;;;;;;;;;13.00;11.00;;;;;21.38;44.64;99774.60;112028;1248;19927;-30
2023/12/01 07:47:31;;;;;;;;;13.67;13.00;;;;;21.36;44.48;99772.23;112149;1248;20446;-30
2023/12/01 07:49:59;;;;;;;;;17.00;15.00;;;;;21.34;44.63;99773.89;111973;1247;20767;-29
2023/12/01 07:52:26;;;;;;;;;19.50;15.00;;;;;21.34;45.16;99774.21;112129;1251;19984;-30
2023/12/01 07:54:53;;;;;;;;;10.00;10.00;;;;;21.35;45.12;99771.05;111954;1247;21299;-30
2023/12/01 07:57:21;;;;;;;;;14.00;13.00;;;;;21.37;45.49;99775.98;112168;1263;19250;-30
2023/12/01 07:59:48;;;;;;;;;19.00;16.00;;;;;21.36;45.60;99778.88;111983;1248;19979;-30
2023/12/01 08:02:16;;;;;;;;;13.00;10.00;;;;;21.34;45.52;99775.04;112154;1248;20312;-31
2023/12/01 08:04:43;;;;;;;;;14.00;12.67;;;;;21.40;45.13;99775.55;111986;1248;20911;-30
2023/12/01 08:07:10;;;;;;;;;10.50;10.00;;;;;21.45;44.83;99778.83;112084;1263;18499;-30
2023/12/01 08:09:37;;;;;;;;;13.00;11.00;;;;;21.45;44.89;99780.58;112034;1263;18762;-31
2023/12/01 08:12:05;;;;;;;;;12.00;10.00;;;;;21.40;45.00;99779.69;111991;1263;19293;-30
2023/12/01 08:14:32;;;;;;;;;11.00;10.00;;;;;21.42;45.07;99782.25;112043;1248;20005;-30
2023/12/01 08:16:59;;;;;;;;;12.00;10.00;;;;;21.45;44.92;99785.53;111994;1248;20150;-31
2023/12/01 08:19:27;;;;;;;;;10.00;10.00;;;;;21.47;45.03;99790.02;112080;1256;20828;-31
2023/12/01 08:21:55;;;;;;;;;10.00;10.00;;;;;21.42;45.25;99793.59;111987;1254;19978;-30
2023/12/01 08:24:23;;;;;;;;;11.00;10.00;;;;;21.38;45.26;99793.39;112066;1248;20020;-30
2023/12/01 08:26:51;;;;;;;;;10.00;8.00;;;;;21.41;45.43;99796.45;112140;1263;19368;-30
2023/12/01 08:29:18;;;;;;;;;10.00;10.00;;;;;21.40;45.59;99796.63;112013;1247;18573;-30
2023/12/01 08:31:46;;;;;;;;;11.00;10.00;;;;;21.40;45.19;99798.31;112135;1248;18830;-31
2023/12/01 08:34:13;;;;;;;;;10.50;10.00;;;;;21.41;45.36;99805.05;111981;1263;19363;-31
2023/12/01 08:36:41;;;;;;;;;16.00;13.00;;;;;21.42;45.81;99805.74;112029;1250;19995;-30
2023/12/01 08:39:09;;;;;;;;;9.00;9.00;;;;;21.36;45.90;99806.21;112032;1248;20103;-30
2023/12/01 08:41:36;;;;;;;;;8.00;8.00;;;;;21.39;45.84;99809.06;112125;1263;19362;-30
2023/12/01 08:44:04;;;;;;;;;10.50;9.00;;;;;21.45;45.85;99807.94;112040;1257;20764;-31
2023/12/01 08:46:31;;;;;;;;;10.00;8.00;;;;;21.42;45.69;99808.63;112076;1251;20056;-30
2023/12/01 08:48:58;;;;;;;;;8.00;7.50;;;;;21.45;45.77;99812.73;112029;1248;19357;-30
2023/12/01 08:51:26;;;;;;;;;7.00;7.00;;;;;21.43;45.75;99810.09;111986;1263;18582;-30
2023/12/01 08:53:53;;;;;;;;;11.00;8.00;;;;;21.46;45.68;99812.89;111994;1256;19828;-31
2023/12/01 08:56:21;;;;;;;;;12.00;10.00;;;;;21.51;45.20;99816.61;112091;1263;21043;-31
2023/12/01 08:58:48;;;;;;;;;10.00;8.00;;;;;21.48;45.21;99819.42;112077;1247;18500;-31
2023/12/01 09:01:16;;;;;;;;;11.00;10.00;;;;;21.45;45.56;99825.09;112003;1248;20147;-30
2023/12/01 09:03:43;;;;;;;;;8.00;8.00;;;;;21.45;45.67;99824.55;111963;1248;21927;-31
2023/12/01 09:06:10;;;;;;;;;10.00;7.00;;;;;21.49;46.44;99825.95;112036;1256;18708;-30
2023/12/01 09:08:38;;;;;;;;;8.00;8.00;;;;;21.48;46.70;99828.37;112029;1248;20074;-30
2023/12/01 09:11:05;;;;;;;;;10.00;8.00;;;;;21.49;46.60;99823.02;112020;1263;20528;-30
2023/12/01 09:13:34;;;;;;;;;9.00;8.50;;;;;21.51;46.27;99821.67;112014;1248;20401;-30
2023/12/01 09:16:01;;;;;;;;;11.00;10.00;;;;;21.50;46.82;99824.04;111994;1247;18631;-31
2023/12/01 09:18:28;;;;;;;;;10.00;10.00;;;;;21.50;46.89;99821.91;112049;1249;20899;-31
2023/12/01 09:20:56;;;;;;;;;10.00;10.00;;;;;21.47;46.84;99819.73;112029;1256;20034;-31
2023/12/01 09:23:23;;;;;;;;;10.50;9.00;;;;;21.51;46.58;99814.38;111986;1263;20034;-31
2023/12/01 09:25:50;;;;;;;;;11.00;10.00;;;;;21.50;46.24;99815.38;112028;1263;20764;-31
2023/12/01 09:28:18;;;;;;;;;10.00;8.00;;;;;21.47;46.25;99817.00;111994;1263;18521;-31
2023/12/01 09:30:45;;;;;;;;;8.67;8.00;;;;;21.51;46.01;99822.86;112087;1263;20047;-31
2023/12/01 09:33:12;;;;;;;;;10.00;10.00;;;;;21.48;46.25;99819.48;112045;1247;20606;-31
2023/12/01 09:35:40;;;;;;;;;10.00;8.00;;;;;21.46;45.99;99820.06;112110;1248;19574;-32
2023/12/01 09:38:07;;;;;;;;;9.00;9.00;;;;;21.41;46.18;99823.58;112051;1263;18902;-32
2023/12/01 09:40:34;;;;;;;;;10.50;9.50;;;;;21.43;46.25;99827.10;112102;1247;22058;-30
2023/12/01 09:43:02;;;;;;;;;10.00;8.00;;;;;21.45;45.96;99830.38;111956;1257;19546;-30
2023/12/01 09:45:29;;;;;;;;;8.00;8.00;;;;;21.49;45.81;99835.91;112143;1263;20173;-30
2023/12/01 09:47:56;;;;;;;;;13.00;13.00;;;;;21.51;46.13;99838.12;112013;1263;19326;-30
2023/12/01 09:50:24;;;;;;;;;10.67;10.00;;;;;21.45;46.26;99837.08;112097;1248;18536;-31
2023/12/01 09:52:52;;;;;;;;;8.00;8.00;;;;;21.45;45.84;99836.59;112022;1263;20033;-30
2023/12/01 09:55:20;;;;;;;;;11.00;8.00;;;;;21.44;45.78;99825.92;112130;1263;19330;-30
2023/12/01 09:57:47;;;;;;;;;11.50;10.00;;;;;21.44;46.04;99822.78;111981;1248;18167;-30
2023/12/01 10:00:15;;;;;;;;;8.50;8.50;;;;;21.44;45.94;99823.27;112145;1248;20107;-30
2023/12/01 10:02:42;;;;;;;;;10.50;9.00;;;;;21.46;45.72;99823.27;111971;1248;22290;-30
2023/12/01 10:05:11;;;;;;;;;11.00;9.00;;;;;21.51;45.25;99817.04;112155;1263;18344;-30
2023/12/01 10:07:38;;;;;;;;;7.00;7.00;;;;;21.50;45.61;99818.42;112045;1256;19983;-30
2023/12/01 10:10:06;;;;;;;;;9.67;7.67;;;;;21.46;45.54;99816.41;112058;1263;20872;-31
2023/12/01 10:12:33;;;;;;;;;10.00;9.00;;;;;21.48;45.63;99811.48;111971;1247;18124;-30
2023/12/01 10:15:01;;;;;;;;;11.00;10.00;;;;;21.51;45.35;99812.61;112097;1251;20048;-30
2023/12/01 10:17:29;;;;;;;;;10.00;8.00;;;;;21.49;45.73;99809.44;111988;1256;19346;-30
2023/12/01 10:19:56;;;;;;;;;11.00;10.00;;;;;21.50;45.64;99812.86;112063;1248;20188;-30
2023/12/01 10:22:24;;;;;;;;;9.33;8.00;;;;;21.50;46.19;99811.06;112154;1247;20011;-31
2023/12/01 10:24:51;;;;;;;;;13.00;10.00;;;;;21.48;46.32;99812.02;112071;1248;20694;-30
2023/12/01 10:27:19;;;;;;;;;10.00;8.00;;;;;21.51;46.56;99816.01;112138;1251;19565;-30
2023/12/01 10:29:47;;;;;;;;;11.00;10.00;;;;;21.51;46.32;99812.58;112092;1248;21405;-30
2023/12/01 10:32:15;;;;;;;;;10.00;10.00;;;;;21.52;45.90;99811.41;112165;1263;19527;-31
2023/12/01 10:34:42;;;;;;;;;10.33;10.33;;;;;21.51;46.23;99809.19;111998;1264;19911;-31
2023/12/01 10:37:10;;;;;;;;;11.00;8.00;;;;;21.51;46.11;99807.61;112214;1256;18703;-31
2023/12/01 10:39:37;;;;;;;;;12.33;10.67;;;;;21.50;46.00;99808.88;112037;1263;19523;-31
2023/12/01 10:42:04;;;;;;;;;11.00;11.00;;;;;21.52;45.82;99808.52;112224;1263;18724;-30
2023/12/01 10:44:32;;;;;;;;;11.00;10.00;;;;;21.51;45.70;99806.96;112048;1247;20515;-31
2023/12/01 10:46:59;;;;;;;;;10.00;10.00;;;;;21.48;45.66;99801.02;112261;1248;22322;-31
2023/12/01 10:49:27;;;;;;;;;11.00;9.33;;;;;21.45;45.53;99797.30;112115;1263;18574;-30
2023/12/01 10:51:54;;;;;;;;;11.00;10.50;;;;;21.47;45.45;99791.77;112245;1263;18596;-31
2023/12/01 10:54:23;;;;;;;;;9.33;8.00;;;;;21.46;45.61;99788.23;112115;1263;20840;-30
2023/12/01 10:56:50;;;;;;;;;13.00;9.00;;;;;21.45;45.48;99787.66;112210;1248;19992;-31
2023/12/01 10:59:18;;;;;;;;;10.00;8.00;;;;;21.44;45.31;99782.34;111987;1248;20324;-31
2023/12/01 11:01:45;;;;;;;;;8.67;8.00;;;;;21.45;45.23;99785.15;112178;1263;20710;-31
2023/12/01 11:04:13;;;;;;;;;11.67;11.00;;;;;21.50;45.48;99789.70;112005;1263;18563;-30
2023/12/01 11:06:41;;;;;;;;;13.00;8.00;;;;;21.50;44.97;99783.11;112299;1248;20264;-32
2023/12/01 11:09:09;;;;;;;;;11.00;10.00;;;;;21.46;45.08;99786.05;112027;1263;20598;-31
2023/12/01 11:11:36;;;;;;;;;10.00;10.00;;;;;21.48;44.89;99787.55;112173;1248;19928;-31
2023/12/01 11:14:04;;;;;;;;;10.50;10.00;;;;;21.43;45.24;99792.23;112236;1263;18684;-31
2023/12/01 11:16:33;;;;;;;;;11.00;10.00;;;;;21.42;45.21;99790.48;112201;1248;20767;-30
2023/12/01 11:19:00;;;;;;;;;10.00;8.00;;;;;21.40;45.11;99792.38;112217;1263;18685;-30